Time;durP1;ratioP1;P1;durP2;ratioP2;P2;SDS_P1;SDS_P2;PMS_P1;PMS_P2;Temp;Humidity;BMP_temperature;BMP_pressure;BME280_temperature;BME280_humidity;BME280_pressure;Samples;Min_cycle;Max_cycle;Signal;HPM_P1;HPM_P2
2023/10/21 00:01:38;;;;;;;1.13;0.85;;;;;;;11.86;88.70;97550.13;4955129;28;20047;-84
2023/10/21 00:04:05;;;;;;;1.38;1.00;;;;;;;11.88;88.86;97559.59;4943099;28;20051;-84
2023/10/21 00:06:32;;;;;;;2.13;0.80;;;;;;;11.87;88.82;97562.31;4962886;28;20098;-87
2023/10/21 00:08:59;;;;;;;1.80;0.85;;;;;;;11.88;88.36;97556.13;4947423;28;20047;-84
2023/10/21 00:11:26;;;;;;;0.95;0.65;;;;;;;11.95;87.62;97562.69;4945892;28;20138;-84
2023/10/21 00:13:52;;;;;;;1.77;1.13;;;;;;;12.05;87.61;97569.03;4950711;28;20063;-85
2023/10/21 00:16:19;;;;;;;1.08;0.55;;;;;;;12.10;87.26;97574.78;4944256;28;20062;-85
2023/10/21 00:18:46;;;;;;;0.60;0.60;;;;;;;12.11;86.78;97567.78;4957363;28;20066;-84
2023/10/21 00:21:13;;;;;;;1.10;0.73;;;;;;;12.11;87.03;97573.84;4951738;28;20114;-84
2023/10/21 00:23:41;;;;;;;1.02;0.80;;;;;;;12.13;86.95;97579.84;4941399;28;20043;-84
2023/10/21 00:26:07;;;;;;;1.45;0.90;;;;;;;12.13;87.02;97574.59;4938470;28;20051;-84
2023/10/21 00:28:34;;;;;;;0.47;0.47;;;;;;;12.19;86.47;97589.09;4944637;28;20043;-84
2023/10/21 00:31:03;;;;;;;0.50;0.50;;;;;;;12.18;86.68;97588.28;4957900;28;20047;-84
2023/10/21 00:33:30;;;;;;;0.68;0.60;;;;;;;12.28;86.19;97588.50;4945109;28;20047;-84
2023/10/21 00:35:57;;;;;;;0.63;0.43;;;;;;;12.29;85.93;97590.16;4952539;28;20130;-84
2023/10/21 00:38:24;;;;;;;0.30;0.30;;;;;;;12.29;86.31;97603.31;4955805;28;20101;-84
2023/10/21 00:40:55;;;;;;;1.85;0.40;;;;;;;12.41;85.58;97593.78;4957736;28;20059;-84
2023/10/21 00:43:39;;;;;;;0.65;0.20;;;;;;;12.41;85.80;97604.31;4958835;28;20431;-84
2023/10/21 00:46:15;;;;;;;2.30;0.38;;;;;;;12.43;85.87;97607.66;4948269;28;20523;-85
2023/10/21 00:48:42;;;;;;;0.50;0.45;;;;;;;12.43;86.05;97612.91;4939793;28;20139;-86
2023/10/21 00:51:09;;;;;;;0.20;0.20;;;;;;;12.51;85.68;97626.41;4948113;28;20051;-85
2023/10/21 00:53:37;;;;;;;0.73;0.20;;;;;;;12.52;85.84;97625.44;4957236;28;20046;-87
2023/10/21 00:56:06;;;;;;;1.75;0.40;;;;;;;12.52;86.11;97627.22;4938158;28;20050;-84
2023/10/21 00:58:33;;;;;;;0.75;0.28;;;;;;;12.52;86.24;97638.59;4942526;28;20054;-84
2023/10/21 01:01:03;;;;;;;0.98;0.38;;;;;;;12.57;85.63;97640.94;4939819;28;20047;-85
2023/10/21 01:03:30;;;;;;;0.40;0.10;;;;;;;12.55;86.21;97642.81;4945693;28;20051;-85
2023/10/21 01:05:57;;;;;;;0.20;0.20;;;;;;;12.58;86.14;97644.38;4940295;28;20046;-84
2023/10/21 01:08:24;;;;;;;0.50;0.20;;;;;;;12.53;86.44;97656.06;4954352;28;20075;-84
2023/10/21 01:10:51;;;;;;;0.38;0.10;;;;;;;12.49;86.75;97644.06;4953008;28;20058;-84
2023/10/21 01:13:18;;;;;;;0.40;0.10;;;;;;;12.55;86.15;97657.75;4961158;28;20051;-84
2023/10/21 01:15:45;;;;;;;0.75;0.10;;;;;;;12.53;86.53;97661.31;4949001;28;20043;-86
2023/10/21 01:18:13;;;;;;;1.23;0.10;;;;;;;12.56;86.09;97669.94;4942414;28;20047;-84
2023/10/21 01:20:41;;;;;;;1.42;0.10;;;;;;;12.58;86.32;97681.22;4952700;28;20050;-86
2023/10/21 01:23:12;;;;;;;0.00;0.00;;;;;;;12.59;86.26;97688.16;4948490;28;20106;-85
2023/10/21 01:25:38;;;;;;;0.10;0.00;;;;;;;12.57;86.41;97682.16;4941030;28;20048;-85
2023/10/21 01:28:05;;;;;;;0.25;0.20;;;;;;;12.60;86.08;97692.47;4943263;28;20055;-84
2023/10/21 01:30:32;;;;;;;0.28;0.00;;;;;;;12.68;85.47;97705.97;4951887;28;20051;-84
2023/10/21 01:32:59;;;;;;;0.47;0.10;;;;;;;12.65;85.64;97709.63;4946766;28;20075;-85
2023/10/21 01:35:26;;;;;;;0.47;0.10;;;;;;;12.64;85.61;97720.25;4952635;28;20152;-84
2023/10/21 01:37:53;;;;;;;0.08;0.03;;;;;;;12.82;83.97;97723.47;4955948;28;20050;-87
2023/10/21 01:40:19;;;;;;;0.00;0.00;;;;;;;12.85;83.70;97734.59;4948829;28;20051;-83
2023/10/21 01:42:46;;;;;;;0.00;0.00;;;;;;;12.77;84.09;97742.16;4950430;28;20138;-84
2023/10/21 01:45:13;;;;;;;0.15;0.00;;;;;;;12.84;83.23;97750.50;4958133;28;20059;-86
2023/10/21 01:47:49;;;;;;;0.00;0.00;;;;;;;12.84;83.13;97751.34;4943115;28;20047;-85
2023/10/21 01:50:16;;;;;;;0.63;0.00;;;;;;;13.13;80.63;97753.78;4938865;28;20058;-85
2023/10/21 01:52:42;;;;;;;0.00;0.00;;;;;;;13.15;80.32;97772.97;4958474;28;20047;-85
2023/10/21 01:55:10;;;;;;;0.00;0.00;;;;;;;13.23;80.01;97783.81;4929782;28;20078;-85
2023/10/21 01:57:37;;;;;;;0.00;0.00;;;;;;;13.31;79.05;97792.97;4943741;28;20061;-84
2023/10/21 02:00:08;;;;;;;0.00;0.00;;;;;;;13.28;79.39;97807.22;4952215;28;20043;-85
2023/10/21 02:02:38;;;;;;;0.08;0.03;;;;;;;13.25;79.13;97814.47;4950644;28;20051;-85
2023/10/21 02:05:06;;;;;;;0.00;0.00;;;;;;;13.55;76.15;97815.03;4926020;28;20594;-85
2023/10/21 02:07:36;;;;;;;0.00;0.00;;;;;;;13.57;76.35;97828.97;4951579;28;20110;-84
2023/10/21 02:10:04;;;;;;;1.35;0.03;;;;;;;13.44;77.26;97836.03;4955678;28;20169;-85
2023/10/21 02:12:31;;;;;;;0.00;0.00;;;;;;;13.44;77.04;97843.94;4953376;28;20062;-86
2023/10/21 02:14:58;;;;;;;0.05;0.00;;;;;;;13.48;76.75;97858.56;4952129;28;20059;-85
2023/10/21 02:17:25;;;;;;;0.08;0.00;;;;;;;13.47;76.70;97870.06;4959910;28;20073;-86
2023/10/21 02:19:58;;;;;;;0.20;0.00;;;;;;;13.36;78.18;97885.75;4956417;28;20101;-85
2023/10/21 02:22:26;;;;;;;;;;;;;;;13.18;79.45;97883.34;4949517;28;20054;-86
2023/10/21 02:24:53;;;;;;;0.57;0.00;;;;;;;13.20;79.58;97891.16;4945630;28;19922;-85
2023/10/21 02:27:20;;;;;;;0.00;0.00;;;;;;;13.10;80.30;97895.34;4944839;28;20047;-85
2023/10/21 02:29:47;;;;;;;0.10;0.00;;;;;;;13.09;80.41;97902.38;4942950;28;20043;-85
2023/10/21 02:32:14;;;;;;;0.00;0.00;;;;;;;13.08;80.62;97910.38;4961905;28;20053;-85
2023/10/21 02:34:41;;;;;;;1.30;0.10;;;;;;;13.04;80.99;97913.22;4959221;28;20050;-85
2023/10/21 02:37:08;;;;;;;0.05;0.00;;;;;;;13.17;79.54;97915.91;4945075;28;20057;-84
2023/10/21 02:39:35;;;;;;;0.00;0.00;;;;;;;13.13;80.18;97922.31;4956534;28;20069;-85
2023/10/21 02:42:02;;;;;;;0.88;0.00;;;;;;;13.16;79.74;97927.38;4956109;28;20065;-85
2023/10/21 02:44:29;;;;;;;0.00;0.00;;;;;;;13.15;79.75;97935.38;4951493;28;20059;-85
2023/10/21 02:46:56;;;;;;;0.20;0.00;;;;;;;13.13;79.72;97942.53;4943843;28;20051;-85
2023/10/21 02:49:23;;;;;;;0.00;0.00;;;;;;;13.15;79.49;97957.28;4961970;28;20057;-86
2023/10/21 02:51:49;;;;;;;0.00;0.00;;;;;;;13.17;79.33;97958.03;4963650;28;20059;-85
2023/10/21 02:54:16;;;;;;;0.00;0.00;;;;;;;13.17;79.31;97962.47;4962245;28;20051;-85
2023/10/21 02:56:43;;;;;;;1.55;0.00;;;;;;;13.21;79.07;97967.41;4951202;28;20043;-85
2023/10/21 02:59:10;;;;;;;0.00;0.00;;;;;;;13.19;79.24;97971.97;4956388;28;20048;-86
2023/10/21 03:01:37;;;;;;;0.40;0.00;;;;;;;13.30;78.35;97981.78;4949646;28;20057;-85
2023/10/21 03:04:04;;;;;;;0.32;0.03;;;;;;;13.38;77.86;97994.47;4947170;28;20047;-86
2023/10/21 03:06:30;;;;;;;0.00;0.00;;;;;;;13.38;77.99;98008.50;4955318;28;20051;-86
2023/10/21 03:08:57;;;;;;;0.00;0.00;;;;;;;13.38;77.94;98016.41;4936144;28;20043;-86
2023/10/21 03:11:24;;;;;;;0.25;0.00;;;;;;;13.44;77.67;98012.53;4935252;28;20043;-85
2023/10/21 03:13:51;;;;;;;3.03;0.03;;;;;;;13.41;78.06;98010.06;4941146;28;20051;-86
2023/10/21 03:16:18;;;;;;;0.00;0.00;;;;;;;13.38;78.38;98021.66;4953292;28;20495;-84
2023/10/21 03:18:47;;;;;;;0.03;0.00;;;;;;;13.38;78.23;98029.56;4949764;28;20520;-86
2023/10/21 03:21:15;;;;;;;0.00;0.00;;;;;;;13.43;77.91;98028.44;4946259;28;20487;-85
2023/10/21 03:23:42;;;;;;;2.65;0.13;;;;;;;13.43;77.91;98036.34;4941152;28;20112;-84
2023/10/21 03:26:08;;;;;;;0.00;0.00;;;;;;;13.38;78.21;98036.63;4931086;28;20070;-84
2023/10/21 03:28:36;;;;;;;0.63;0.00;;;;;;;13.42;78.11;98042.53;4949229;28;20053;-84
2023/10/21 03:31:06;;;;;;;0.00;0.00;;;;;;;13.40;78.21;98045.28;4959012;28;20058;-85
2023/10/21 03:33:33;;;;;;;0.17;0.10;;;;;;;13.48;77.57;98056.16;4961847;28;20043;-85
2023/10/21 03:36:04;;;;;;;0.10;0.10;;;;;;;13.42;78.10;98066.25;4947879;28;20059;-84
2023/10/21 03:38:31;;;;;;;0.10;0.00;;;;;;;13.41;77.96;98073.28;4944471;28;20059;-84
2023/10/21 03:41:11;;;;;;;0.10;0.00;;;;;;;13.44;77.49;98073.13;4948137;28;20047;-84
2023/10/21 03:43:38;;;;;;;0.15;0.00;;;;;;;13.50;76.76;98088.53;4960518;28;20043;-84
2023/10/21 03:46:09;;;;;;;0.15;0.10;;;;;;;13.55;76.14;98090.84;4953278;28;20047;-85
2023/10/21 03:48:36;;;;;;;0.50;0.35;;;;;;;13.45;76.82;98101.13;4945427;28;20067;-84
2023/10/21 03:51:05;;;;;;;0.80;0.10;;;;;;;13.54;75.74;98100.56;4948186;28;20057;-84
2023/10/21 03:53:33;;;;;;;0.15;0.10;;;;;;;13.46;76.27;98108.09;4947654;28;20051;-84
2023/10/21 03:56:00;;;;;;;0.30;0.00;;;;;;;13.48;75.93;98110.63;4940263;28;20057;-84
2023/10/21 03:58:28;;;;;;;0.00;0.00;;;;;;;13.54;74.85;98108.47;4956377;28;20043;-83
2023/10/21 04:00:57;;;;;;;1.25;0.10;;;;;;;13.50;74.92;98106.97;4951634;28;20054;-84
2023/10/21 04:03:25;;;;;;;0.03;0.00;;;;;;;13.52;75.02;98096.31;4958408;28;20113;-84
2023/10/21 04:05:53;;;;;;;0.22;0.10;;;;;;;13.45;75.01;98111.66;4948586;28;20066;-85
2023/10/21 04:08:20;;;;;;;0.20;0.03;;;;;;;13.37;75.50;98104.28;4954073;28;20138;-84
2023/10/21 04:10:47;;;;;;;0.30;0.00;;;;;;;13.46;74.89;98109.91;4951750;28;20057;-83
2023/10/21 04:13:14;;;;;;;0.10;0.10;;;;;;;13.38;75.59;98120.91;4957534;28;20053;-85
2023/10/21 04:15:41;;;;;;;0.10;0.00;;;;;;;13.49;74.71;98120.25;4948009;28;20352;-84
2023/10/21 04:18:08;;;;;;;0.20;0.00;;;;;;;13.52;74.65;98123.50;4940684;28;20483;-84
2023/10/21 04:20:36;;;;;;;0.05;0.00;;;;;;;13.41;75.35;98130.41;4943772;28;20071;-85
2023/10/21 04:23:03;;;;;;;0.00;0.00;;;;;;;13.45;75.24;98132.75;4940855;28;20066;-84
2023/10/21 04:25:30;;;;;;;0.68;0.00;;;;;;;13.44;75.52;98135.47;4964739;28;20069;-84
2023/10/21 04:27:56;;;;;;;0.10;0.10;;;;;;;13.49;75.39;98142.16;4933617;28;20058;-83
2023/10/21 04:30:24;;;;;;;0.43;0.10;;;;;;;13.40;75.81;98155.91;4952440;28;20043;-85
2023/10/21 04:32:51;;;;;;;0.00;0.00;;;;;;;13.59;75.08;98149.50;4948081;28;20047;-85
2023/10/21 04:35:19;;;;;;;0.20;0.10;;;;;;;13.52;75.56;98156.94;4949226;28;20062;-84
2023/10/21 04:37:46;;;;;;;0.30;0.20;;;;;;;13.45;75.90;98155.63;4956442;28;20053;-85
2023/10/21 04:40:13;;;;;;;0.80;0.10;;;;;;;13.41;75.95;98157.59;4954728;28;20053;-84
2023/10/21 04:42:40;;;;;;;0.75;0.10;;;;;;;13.40;76.29;98171.72;4961320;28;20047;-84
2023/10/21 04:45:08;;;;;;;0.40;0.03;;;;;;;13.51;75.45;98177.16;4944130;28;20057;-85
2023/10/21 04:47:35;;;;;;;0.80;0.30;;;;;;;13.45;75.68;98179.34;4960090;28;20047;-85
2023/10/21 04:50:04;;;;;;;0.10;0.00;;;;;;;13.32;76.83;98179.22;4973454;28;20068;-84
2023/10/21 04:52:31;;;;;;;0.10;0.08;;;;;;;13.38;76.16;98184.13;4955765;28;20051;-83
2023/10/21 04:54:58;;;;;;;0.15;0.00;;;;;;;13.47;75.43;98190.59;4941297;28;20079;-83
2023/10/21 04:57:25;;;;;;;0.30;0.10;;;;;;;13.39;75.74;98194.56;4957943;28;20047;-84
2023/10/21 04:59:52;;;;;;;0.13;0.03;;;;;;;13.33;76.21;98207.25;4932159;28;20058;-83
2023/10/21 05:02:20;;;;;;;0.08;0.08;;;;;;;13.42;75.64;98209.34;4951740;28;20059;-84
2023/10/21 05:04:49;;;;;;;0.32;0.00;;;;;;;13.43;75.66;98213.69;4935754;28;20043;-85
2023/10/21 05:07:17;;;;;;;0.38;0.10;;;;;;;13.40;75.90;98219.16;4941400;28;20111;-83
2023/10/21 05:09:48;;;;;;;0.10;0.10;;;;;;;13.67;73.69;98224.47;4942365;28;20047;-82
2023/10/21 05:12:14;;;;;;;0.63;0.00;;;;;;;13.63;73.68;98224.75;4943512;28;20055;-85
2023/10/21 05:14:42;;;;;;;0.00;0.00;;;;;;;13.60;73.58;98228.44;4960727;28;20059;-84
2023/10/21 05:17:09;;;;;;;0.20;0.00;;;;;;;13.59;74.26;98236.44;4947333;28;20058;-84
2023/10/21 05:19:36;;;;;;;0.35;0.00;;;;;;;13.50;74.52;98227.34;4960157;28;20061;-85
2023/10/21 05:22:03;;;;;;;0.13;0.00;;;;;;;13.47;74.96;98236.25;4950422;28;20054;-84
2023/10/21 05:24:32;;;;;;;0.10;0.00;;;;;;;13.28;75.85;98238.28;4947404;28;20117;-83
2023/10/21 05:26:59;;;;;;;0.45;0.00;;;;;;;13.46;74.48;98245.09;4952290;28;20059;-84
2023/10/21 05:29:26;;;;;;;0.15;0.00;;;;;;;13.45;74.38;98248.66;4955692;28;20112;-84
2023/10/21 05:31:54;;;;;;;0.00;0.00;;;;;;;13.60;73.48;98261.84;4969399;28;20061;-83
2023/10/21 05:34:21;;;;;;;0.60;0.10;;;;;;;13.47;73.94;98265.25;4955579;28;20058;-84
2023/10/21 05:36:48;;;;;;;0.05;0.05;;;;;;;13.29;75.26;98269.81;4938062;28;20087;-84
2023/10/21 05:39:15;;;;;;;0.00;0.00;;;;;;;13.17;75.83;98275.81;4960964;28;20053;-83
2023/10/21 05:41:42;;;;;;;0.32;0.00;;;;;;;13.08;76.28;98282.50;4943556;28;20047;-84
2023/10/21 05:44:09;;;;;;;1.30;0.10;;;;;;;13.03;76.79;98295.06;4944127;28;20510;-83
2023/10/21 05:46:36;;;;;;;0.00;0.00;;;;;;;12.98;77.43;98307.69;4949446;28;20426;-84
2023/10/21 05:49:09;;;;;;;0.00;0.00;;;;;;;12.97;77.44;98317.34;4922304;28;20064;-83
2023/10/21 05:51:36;;;;;;;0.00;0.00;;;;;;;12.89;77.99;98327.50;4932670;28;20062;-84
2023/10/21 05:54:03;;;;;;;0.90;0.00;;;;;;;12.82;78.95;98326.16;4946056;28;20055;-83
2023/10/21 05:56:29;;;;;;;0.77;0.00;;;;;;;12.67;80.23;98338.38;4961812;28;20142;-83
2023/10/21 05:58:56;;;;;;;0.47;0.00;;;;;;;12.56;81.17;98346.91;4955825;28;20057;-83
2023/10/21 06:01:23;;;;;;;0.10;0.00;;;;;;;12.51;81.52;98348.94;4970772;28;20047;-83
2023/10/21 06:03:50;;;;;;;0.10;0.10;;;;;;;12.47;81.74;98358.78;4948660;28;20043;-82
2023/10/21 06:06:17;;;;;;;0.03;0.00;;;;;;;12.45;81.46;98371.16;4950611;28;20047;-83
2023/10/21 06:08:44;;;;;;;0.08;0.08;;;;;;;12.42;81.43;98388.91;4938762;28;20137;-85
2023/10/21 06:11:12;;;;;;;0.05;0.05;;;;;;;12.45;81.23;98389.59;4935166;28;20066;-83
2023/10/21 06:13:39;;;;;;;0.47;0.00;;;;;;;12.40;81.81;98389.00;4961379;28;20135;-83
2023/10/21 06:16:06;;;;;;;0.20;0.00;;;;;;;12.41;81.13;98406.50;4948211;28;20055;-83
2023/10/21 06:18:33;;;;;;;0.38;0.05;;;;;;;12.46;81.17;98407.06;4961814;28;20106;-83
2023/10/21 06:21:00;;;;;;;0.13;0.10;;;;;;;12.48;80.85;98426.28;4961714;28;20134;-83
2023/10/21 06:23:27;;;;;;;0.20;0.10;;;;;;;12.61;79.33;98430.84;4948209;28;20499;-83
2023/10/21 06:25:54;;;;;;;0.13;0.10;;;;;;;12.73;78.49;98438.06;4951731;28;20053;-83
2023/10/21 06:28:21;;;;;;;0.40;0.10;;;;;;;12.83;77.47;98436.59;4947202;28;20053;-83
2023/10/21 06:30:48;;;;;;;0.30;0.10;;;;;;;12.87;76.77;98442.53;4942507;28;20065;-83
2023/10/21 06:33:15;;;;;;;0.03;0.03;;;;;;;13.04;74.92;98454.75;4948923;28;20052;-83
2023/10/21 06:35:42;;;;;;;0.17;0.10;;;;;;;13.03;74.08;98453.03;4960639;28;20047;-83
2023/10/21 06:38:09;;;;;;;0.25;0.10;;;;;;;12.93;74.66;98457.13;4948213;28;20061;-83
2023/10/21 06:40:36;;;;;;;0.20;0.20;;;;;;;12.83;75.90;98472.59;4941587;28;20047;-83
2023/10/21 06:43:06;;;;;;;0.20;0.10;;;;;;;12.73;76.51;98472.28;4942953;28;20055;-83
2023/10/21 06:45:33;;;;;;;0.10;0.00;;;;;;;12.63;77.60;98481.59;4947619;28;20422;-83
2023/10/21 06:48:01;;;;;;;0.00;0.00;;;;;;;12.60;78.67;98494.91;4949197;28;20054;-82
2023/10/21 06:50:29;;;;;;;0.22;0.10;;;;;;;12.54;80.43;98503.97;4960340;28;20046;-83
2023/10/21 06:52:56;;;;;;;0.10;0.00;;;;;;;12.41;81.04;98502.94;4954516;28;20043;-82
2023/10/21 06:55:23;;;;;;;0.10;0.00;;;;;;;12.28;82.31;98502.75;4968270;28;20050;-83
2023/10/21 06:57:52;;;;;;;0.38;0.10;;;;;;;12.17;82.55;98504.16;4938633;28;20136;-83
2023/10/21 07:00:20;;;;;;;1.65;0.25;;;;;;;12.39;79.62;98510.09;4955446;28;20051;-83
2023/10/21 07:02:47;;;;;;;0.10;0.00;;;;;;;12.42;78.47;98505.50;4947475;28;20499;-84
2023/10/21 07:05:14;;;;;;;1.42;0.30;;;;;;;12.49;77.01;98512.13;4961247;28;20053;-82
2023/10/21 07:07:41;;;;;;;0.35;0.20;;;;;;;12.56;76.25;98517.06;4949001;28;20098;-82
2023/10/21 07:10:09;;;;;;;0.10;0.05;;;;;;;12.78;73.22;98512.34;4954945;28;20493;-83
2023/10/21 07:12:38;;;;;;;0.20;0.10;;;;;;;12.82;73.02;98523.56;4961190;28;20047;-83
2023/10/21 07:15:07;;;;;;;0.00;0.00;;;;;;;12.86;72.61;98532.97;4939996;28;20205;-82
2023/10/21 07:17:34;;;;;;;0.85;0.10;;;;;;;12.94;72.09;98541.28;4959407;28;20134;-82
2023/10/21 07:20:01;;;;;;;0.10;0.10;;;;;;;12.90;72.49;98537.13;4952589;28;20568;-83
2023/10/21 07:22:28;;;;;;;0.00;0.00;;;;;;;12.86;73.07;98541.72;4959922;28;20051;-83
2023/10/21 07:24:56;;;;;;;0.10;0.08;;;;;;;12.85;73.21;98555.81;4939917;28;20142;-83
2023/10/21 07:27:24;;;;;;;0.20;0.10;;;;;;;12.98;71.68;98549.91;4938354;28;20051;-83
2023/10/21 07:29:51;;;;;;;0.03;0.03;;;;;;;13.00;72.22;98558.53;4928297;28;20117;-83
2023/10/21 07:32:18;;;;;;;0.90;0.10;;;;;;;13.07;72.00;98559.91;4934952;28;20120;-83
2023/10/21 07:34:44;;;;;;;0.13;0.10;;;;;;;13.05;71.75;98573.16;4945947;28;20043;-83
2023/10/21 07:37:11;;;;;;;1.08;0.10;;;;;;;13.08;70.98;98577.41;4939618;28;20075;-83
2023/10/21 07:39:38;;;;;;;0.20;0.10;;;;;;;13.14;70.69;98584.97;4946973;28;20058;-83
2023/10/21 07:42:05;;;;;;;0.98;0.00;;;;;;;13.17;70.44;98587.44;4950700;28;20334;-84
2023/10/21 07:44:32;;;;;;;0.00;0.00;;;;;;;13.19;69.24;98592.59;4937000;28;20043;-82
2023/10/21 07:46:59;;;;;;;0.10;0.10;;;;;;;13.26;67.86;98595.75;4942787;28;20048;-83
2023/10/21 07:49:26;;;;;;;0.63;0.00;;;;;;;13.39;66.40;98599.44;4942187;28;20055;-83
2023/10/21 07:51:53;;;;;;;0.43;0.10;;;;;;;13.48;66.54;98617.34;4934630;28;20066;-84
2023/10/21 07:54:19;;;;;;;0.63;0.00;;;;;;;13.63;65.70;98609.53;4941954;28;20490;-83
2023/10/21 07:56:46;;;;;;;0.43;0.20;;;;;;;13.76;65.02;98609.69;4946771;28;20106;-83
2023/10/21 07:59:16;;;;;;;0.63;0.10;;;;;;;13.72;66.66;98617.75;4952159;28;20089;-83
2023/10/21 08:01:43;;;;;;;0.55;0.10;;;;;;;13.68;66.05;98612.75;4931075;28;20059;-84
2023/10/21 08:04:10;;;;;;;0.38;0.05;;;;;;;13.71;67.26;98625.75;4936400;28;20119;-84
2023/10/21 08:06:38;;;;;;;0.38;0.10;;;;;;;13.61;67.21;98624.59;4939027;28;20059;-84
2023/10/21 08:09:05;;;;;;;0.10;0.05;;;;;;;13.66;66.67;98626.03;4952389;28;20057;-84
2023/10/21 08:11:32;;;;;;;0.55;0.03;;;;;;;13.63;64.84;98627.97;4954450;28;20047;-84
2023/10/21 08:13:59;;;;;;;1.23;0.10;;;;;;;13.46;67.02;98637.69;4933699;28;20059;-82
2023/10/21 08:16:25;;;;;;;1.10;0.13;;;;;;;13.47;67.10;98639.38;4955816;28;20046;-83
2023/10/21 08:18:52;;;;;;;0.10;0.00;;;;;;;13.60;67.81;98646.59;4957875;28;20439;-83
2023/10/21 08:21:19;;;;;;;0.08;0.00;;;;;;;13.63;66.95;98652.56;4945392;28;20141;-84
2023/10/21 08:23:46;;;;;;;0.10;0.10;;;;;;;13.62;66.29;98664.03;4946797;28;20099;-83
2023/10/21 08:26:13;;;;;;;0.00;0.00;;;;;;;13.75;67.22;98658.94;4943219;28;20055;-83
2023/10/21 08:28:40;;;;;;;0.17;0.15;;;;;;;13.79;67.01;98670.13;4944632;28;20051;-84
2023/10/21 08:31:08;;;;;;;0.03;0.00;;;;;;;13.82;65.54;98678.72;4943328;28;20066;-84
2023/10/21 08:33:35;;;;;;;0.30;0.10;;;;;;;13.99;65.16;98679.56;4950397;28;20050;-84
2023/10/21 08:36:02;;;;;;;0.40;0.20;;;;;;;14.03;64.46;98673.16;4947336;28;20051;-83
2023/10/21 08:38:29;;;;;;;0.00;0.00;;;;;;;14.01;65.16;98698.78;4955390;28;20078;-84
2023/10/21 08:40:56;;;;;;;0.10;0.00;;;;;;;13.97;64.28;98689.34;4954842;28;20054;-85
2023/10/21 08:43:23;;;;;;;0.22;0.00;;;;;;;14.07;64.69;98693.16;4951477;28;20047;-84
2023/10/21 08:45:50;;;;;;;0.32;0.10;;;;;;;13.90;64.07;98702.03;4948590;28;20047;-84
2023/10/21 08:48:17;;;;;;;1.17;0.20;;;;;;;13.82;64.25;98699.00;4947484;28;20463;-84
2023/10/21 08:50:49;;;;;;;0.57;0.00;;;;;;;14.06;64.26;98707.28;4954686;28;20125;-84
2023/10/21 08:53:15;;;;;;;0.45;0.20;;;;;;;14.21;61.75;98708.22;4949473;28;20047;-85
2023/10/21 08:55:43;;;;;;;2.05;0.30;;;;;;;14.25;63.34;98707.94;4942765;28;20043;-83
2023/10/21 08:58:10;;;;;;;0.88;0.10;;;;;;;14.30;63.23;98709.47;4950828;28;20135;-85
2023/10/21 09:00:38;;;;;;;0.45;0.32;;;;;;;14.33;63.22;98704.00;4959574;28;20061;-85
2023/10/21 09:03:05;;;;;;;0.57;0.20;;;;;;;14.40;62.98;98710.63;4949480;28;20225;-83
2023/10/21 09:05:34;;;;;;;0.70;0.20;;;;;;;14.41;62.55;98712.28;4957853;28;20147;-83
2023/10/21 09:08:01;;;;;;;0.25;0.05;;;;;;;14.41;62.45;98728.13;4949037;28;20051;-83
2023/10/21 09:10:30;;;;;;;1.35;0.10;;;;;;;14.33;62.04;98727.75;4937364;28;20058;-84
2023/10/21 09:12:57;;;;;;;0.75;0.22;;;;;;;14.53;62.58;98729.22;4946682;28;20071;-84
2023/10/21 09:15:35;;;;;;;0.10;0.03;;;;;;;14.60;61.37;98726.13;4942520;28;20051;-84
2023/10/21 09:18:10;;;;;;;1.10;0.10;;;;;;;14.54;61.01;98731.78;4957985;28;20070;-85
2023/10/21 09:20:37;;;;;;;0.30;0.10;;;;;;;14.71;61.56;98735.25;4955959;28;20050;-85
2023/10/21 09:23:05;;;;;;;0.80;0.10;;;;;;;14.81;61.45;98744.31;4939786;28;20051;-84
2023/10/21 09:25:32;;;;;;;2.28;0.20;;;;;;;14.80;60.81;98747.03;4941512;28;20158;-84
2023/10/21 09:27:59;;;;;;;1.17;0.40;;;;;;;14.89;59.93;98735.94;4953055;28;20062;-84
2023/10/21 09:30:28;;;;;;;1.00;0.10;;;;;;;14.65;61.18;98746.16;4940795;28;20578;-85
2023/10/21 09:33:04;;;;;;;1.08;0.20;;;;;;;14.49;61.57;98762.00;4936718;28;20054;-86
2023/10/21 09:35:31;;;;;;;1.65;0.20;;;;;;;14.44;62.07;98765.75;4952093;28;20101;-84
2023/10/21 09:38:17;;;;;;;0.50;0.20;;;;;;;14.29;61.21;98765.78;4930157;28;20484;-83
2023/10/21 09:40:44;;;;;;;0.65;0.15;;;;;;;14.38;62.35;98760.84;4954952;28;20054;-83
2023/10/21 09:43:12;;;;;;;1.20;0.20;;;;;;;14.59;61.69;98764.03;4959952;28;20402;-83
2023/10/21 09:45:43;;;;;;;0.80;0.28;;;;;;;14.53;60.93;98767.03;4962857;28;20043;-83
2023/10/21 09:48:14;;;;;;;0.98;0.20;;;;;;;14.79;60.26;98762.03;4943309;28;20106;-83
2023/10/21 09:50:49;;;;;;;2.47;0.20;;;;;;;14.87;60.62;98762.41;4950084;28;20071;-83
2023/10/21 09:53:16;;;;;;;0.17;0.10;;;;;;;15.33;59.41;98768.53;4948840;28;20043;-83
2023/10/21 09:55:43;;;;;;;0.60;0.10;;;;;;;15.77;58.56;98765.78;4957757;28;20078;-85
2023/10/21 09:58:12;;;;;;;1.13;0.10;;;;;;;15.56;57.94;98761.81;4942706;28;20046;-83
2023/10/21 10:00:40;;;;;;;0.40;0.10;;;;;;;15.76;57.17;98765.88;4963269;28;20053;-83
2023/10/21 10:03:07;;;;;;;0.40;0.10;;;;;;;15.74;56.25;98762.47;4946476;28;20062;-84
2023/10/21 10:05:34;;;;;;;0.25;0.13;;;;;;;15.50;56.37;98760.41;4950812;28;20495;-84
2023/10/21 10:08:01;;;;;;;1.23;0.30;;;;;;;15.40;56.24;98754.00;4947345;28;20050;-84
2023/10/21 10:10:28;;;;;;;0.43;0.10;;;;;;;15.57;55.12;98761.72;4962572;28;20442;-84
2023/10/21 10:12:57;;;;;;;3.33;0.40;;;;;;;15.54;55.26;98756.63;4951273;28;20411;-85
2023/10/21 10:15:34;;;;;;;0.40;0.10;;;;;;;15.60;55.42;98761.53;4950536;28;20043;-84
2023/10/21 10:18:03;;;;;;;0.82;0.20;;;;;;;15.34;55.20;98754.34;4933110;28;20137;-83
2023/10/21 10:20:31;;;;;;;0.32;0.10;;;;;;;15.56;54.39;98760.03;4955630;28;20058;-83
2023/10/21 10:23:02;;;;;;;0.13;0.00;;;;;;;15.80;55.06;98768.25;4956937;28;20050;-83
2023/10/21 10:25:33;;;;;;;0.73;0.10;;;;;;;16.00;54.70;98755.53;4958848;28;20050;-83
2023/10/21 10:28:10;;;;;;;0.77;0.10;;;;;;;16.11;55.02;98746.91;4945866;28;20055;-83
2023/10/21 10:30:44;;;;;;;1.98;0.30;;;;;;;15.85;54.13;98752.09;4950822;28;20054;-84
2023/10/21 10:33:15;;;;;;;0.70;0.10;;;;;;;15.92;54.15;98763.97;4951807;28;20047;-83
2023/10/21 10:35:48;;;;;;;0.45;0.10;;;;;;;16.25;55.22;98753.94;4954207;28;20043;-83
2023/10/21 10:38:24;;;;;;;0.82;0.22;;;;;;;16.13;54.23;98758.25;4946921;28;20043;-83
2023/10/21 10:40:57;;;;;;;0.85;0.10;;;;;;;15.99;54.48;98760.00;4944666;28;20050;-83
2023/10/21 10:43:26;;;;;;;0.65;0.45;;;;;;;16.11;54.26;98760.16;4940081;28;20070;-83
2023/10/21 10:45:53;;;;;;;0.63;0.20;;;;;;;16.05;53.93;98757.88;4939837;28;20047;-83
2023/10/21 10:48:21;;;;;;;0.30;0.10;;;;;;;16.09;54.04;98751.44;4941995;28;20126;-83
2023/10/21 10:50:48;;;;;;;1.23;0.55;;;;;;;16.44;53.85;98756.25;4942486;28;20051;-83
2023/10/21 10:53:21;;;;;;;0.52;0.10;;;;;;;16.40;52.46;98760.88;4944760;28;20054;-83
2023/10/21 10:55:49;;;;;;;;;;;;;;;16.31;53.56;98757.06;4946478;28;20047;-84
2023/10/21 10:58:18;;;;;;;1.30;0.30;;;;;;;16.39;53.04;98764.47;4953041;28;19953;-84
2023/10/21 11:00:46;;;;;;;1.90;0.15;;;;;;;16.51;53.40;98773.41;4951345;28;20047;-83
2023/10/21 11:03:28;;;;;;;0.43;0.20;;;;;;;16.34;52.83;98772.72;4960076;28;20101;-83
2023/10/21 11:05:57;;;;;;;0.60;0.10;;;;;;;16.56;52.73;98767.81;4947731;28;20071;-84
2023/10/21 11:08:25;;;;;;;0.52;0.10;;;;;;;16.48;52.43;98769.19;4946183;28;20047;-83
2023/10/21 11:11:04;;;;;;;0.60;0.10;;;;;;;16.57;51.78;98766.84;4947073;28;20078;-83
2023/10/21 11:13:32;;;;;;;1.38;0.10;;;;;;;16.67;50.32;98773.25;4961131;28;20146;-83
2023/10/21 11:16:00;;;;;;;1.30;0.10;;;;;;;16.65;51.29;98773.34;4953773;28;20051;-83
2023/10/21 11:18:27;;;;;;;0.68;0.13;;;;;;;16.64;51.37;98769.00;4950879;28;20573;-83
2023/10/21 11:20:55;;;;;;;0.30;0.30;;;;;;;16.83;50.73;98767.78;4938233;28;20085;-83
2023/10/21 11:23:26;;;;;;;2.65;0.30;;;;;;;16.83;51.54;98762.50;4961707;28;20043;-85
2023/10/21 11:25:57;;;;;;;1.45;0.30;;;;;;;16.76;50.10;98753.25;4940798;28;20098;-83
2023/10/21 11:28:24;;;;;;;0.70;0.20;;;;;;;16.98;50.56;98761.47;4945093;28;20066;-84
2023/10/21 11:30:52;;;;;;;0.57;0.10;;;;;;;17.07;50.35;98773.22;4950045;28;20050;-85
2023/10/21 11:33:19;;;;;;;0.52;0.10;;;;;;;17.15;50.30;98768.25;4961053;28;20046;-84
2023/10/21 11:35:47;;;;;;;0.40;0.20;;;;;;;16.92;49.65;98769.00;4945045;28;20047;-86
2023/10/21 11:38:16;;;;;;;1.17;0.20;;;;;;;17.13;49.71;98770.19;4951008;28;20078;-84